createdAt,value
2019-03-21T00:02:53.367Z,18.15
2019-03-21T00:07:56.920Z,17.40
2019-03-21T00:13:00.530Z,18.32
2019-03-21T00:18:08.225Z,17.67
2019-03-21T00:23:11.754Z,16.17
2019-03-21T00:28:15.360Z,16.10
2019-03-21T00:33:18.895Z,15.85
2019-03-21T00:38:22.466Z,15.23
2019-03-21T00:43:26.002Z,17.12
2019-03-21T00:48:29.604Z,15.25
2019-03-21T00:53:33.182Z,17.80
2019-03-21T00:58:37.273Z,16.27
2019-03-21T01:03:40.811Z,17.27
2019-03-21T01:08:44.415Z,15.65
2019-03-21T01:13:48.267Z,15.65
2019-03-21T01:18:51.871Z,15.10
2019-03-21T01:23:55.436Z,16.52
2019-03-21T01:28:59.041Z,14.70
2019-03-21T01:34:02.602Z,15.88
2019-03-21T01:39:07.087Z,15.83
2019-03-21T01:44:10.615Z,15.83
2019-03-21T01:49:14.201Z,15.38
2019-03-21T01:54:17.766Z,15.28
2019-03-21T01:59:21.378Z,14.90
2019-03-21T02:04:24.934Z,14.10
2019-03-21T02:09:28.508Z,13.78
2019-03-21T02:14:32.070Z,14.25
2019-03-21T02:19:35.668Z,13.35
2019-03-21T02:24:39.207Z,13.03
2019-03-21T02:29:42.827Z,12.20
2019-03-21T02:34:46.365Z,11.88
2019-03-21T02:39:59.516Z,11.48
2019-03-21T02:45:07.566Z,11.55
2019-03-21T02:50:00.542Z,12.07
2019-03-21T02:55:05.075Z,12.33
2019-03-21T03:00:17.778Z,12.80
2019-03-21T03:05:24.114Z,12.73
2019-03-21T03:10:36.734Z,12.10
2019-03-21T03:15:41.092Z,12.70
2019-03-21T03:20:44.938Z,12.63
2019-03-21T03:25:50.963Z,12.20
2019-03-21T03:30:56.011Z,11.30
2019-03-21T03:35:59.567Z,12.03
2019-03-21T03:41:14.399Z,11.78
2019-03-21T03:46:17.956Z,11.70
2019-03-21T03:51:21.559Z,10.75
2019-03-21T03:56:25.098Z,11.30
2019-03-21T04:01:28.683Z,10.78
2019-03-21T04:06:32.210Z,9.80
2019-03-21T04:11:36.184Z,9.87
2019-03-21T04:16:39.721Z,9.25
2019-03-21T04:21:43.320Z,9.18
2019-03-21T04:26:46.949Z,8.88
2019-03-21T04:31:50.523Z,8.18
2019-03-21T04:36:54.092Z,9.10
2019-03-21T04:41:57.681Z,8.53
2019-03-21T04:47:01.233Z,8.93
2019-03-21T04:52:04.800Z,8.25
2019-03-21T04:57:08.334Z,7.87
2019-03-21T05:02:12.006Z,7.97
2019-03-21T05:07:15.571Z,8.00
2019-03-21T05:12:19.149Z,7.65
2019-03-21T05:17:22.713Z,7.12
2019-03-21T05:22:26.279Z,7.60
2019-03-21T05:27:29.827Z,7.45
2019-03-21T05:32:33.439Z,8.00
2019-03-21T05:37:36.998Z,7.05
2019-03-21T05:42:40.985Z,7.33
2019-03-21T05:47:44.531Z,7.50
2019-03-21T05:52:48.174Z,7.60
2019-03-21T05:57:51.725Z,7.23
2019-03-21T06:02:55.321Z,6.25
2019-03-21T06:08:11.257Z,8.10
2019-03-21T06:13:14.821Z,8.80
2019-03-21T06:18:40.991Z,8.38
2019-03-21T06:24:04.620Z,7.08
2019-03-21T06:29:08.174Z,7.08
2019-03-21T06:34:12.072Z,6.93
2019-03-21T06:39:15.629Z,6.75
2019-03-21T06:44:19.209Z,7.30
2019-03-21T06:49:22.761Z,6.93
2019-03-21T06:54:26.336Z,7.80
2019-03-21T06:59:29.948Z,7.40
2019-03-21T07:04:33.520Z,7.08
2019-03-21T07:09:37.044Z,6.40
2019-03-21T07:14:40.632Z,7.53
2019-03-21T07:19:44.169Z,6.28
2019-03-21T07:24:48.193Z,6.72
2019-03-21T07:29:51.729Z,7.40
2019-03-21T07:34:55.337Z,6.70
2019-03-21T07:39:58.870Z,6.65
2019-03-21T07:45:02.444Z,6.62
2019-03-21T07:50:08.989Z,5.58
2019-03-21T07:55:13.535Z,6.15
2019-03-21T08:00:18.195Z,5.83
2019-03-21T08:05:21.843Z,5.45
2019-03-21T08:10:25.402Z,5.70
2019-03-21T08:15:28.973Z,5.22
2019-03-21T08:20:32.511Z,6.10
2019-03-21T08:25:36.088Z,6.08
2019-03-21T08:30:42.766Z,8.78
2019-03-21T08:35:46.663Z,6.67
2019-03-21T08:40:50.220Z,6.30
2019-03-21T08:45:53.784Z,5.60
2019-03-21T08:51:07.640Z,5.53
2019-03-21T08:56:02.617Z,4.97
2019-03-21T09:01:06.171Z,5.30
2019-03-21T09:06:09.757Z,5.33
2019-03-21T09:11:13.284Z,5.28
2019-03-21T09:16:16.994Z,5.67
2019-03-21T09:21:20.617Z,5.20
2019-03-21T09:26:24.188Z,5.85
2019-03-21T09:31:27.750Z,5.22
2019-03-21T09:36:31.360Z,5.10
2019-03-21T09:41:35.129Z,5.72
2019-03-21T09:46:50.171Z,4.72
2019-03-21T09:51:45.170Z,4.45
2019-03-21T09:56:48.779Z,4.42
2019-03-21T10:01:54.389Z,6.62
2019-03-21T10:06:57.636Z,5.78
2019-03-21T10:12:01.166Z,6.47
2019-03-21T10:17:04.928Z,6.42
2019-03-21T10:22:08.485Z,5.58
2019-03-21T10:27:12.085Z,5.93
2019-03-21T10:32:15.620Z,5.70
2019-03-21T10:37:19.265Z,7.17
2019-03-21T10:42:22.825Z,6.37
2019-03-21T10:47:26.437Z,5.35
2019-03-21T10:52:29.956Z,4.97
2019-03-21T10:57:33.550Z,5.58
2019-03-21T11:02:37.085Z,4.62
2019-03-21T11:07:40.680Z,5.53
2019-03-21T11:12:44.204Z,4.28
2019-03-21T11:17:47.797Z,6.47
2019-03-21T11:22:51.364Z,4.17
2019-03-21T11:27:54.967Z,5.17
2019-03-21T11:32:58.517Z,4.97
2019-03-21T11:38:02.128Z,8.40
2019-03-21T11:43:07.459Z,7.47
2019-03-21T11:48:11.079Z,12.10
2019-03-21T11:53:14.625Z,10.43
2019-03-21T11:58:18.229Z,9.73
2019-03-21T12:03:24.228Z,9.65
2019-03-21T12:08:27.096Z,8.40
2019-03-21T12:13:30.631Z,7.80
2019-03-21T12:18:34.250Z,8.75
2019-03-21T12:23:37.833Z,7.40
2019-03-21T12:28:41.384Z,6.55
2019-03-21T12:33:44.983Z,6.12
2019-03-21T12:38:48.540Z,5.33
2019-03-21T12:43:52.083Z,6.30
2019-03-21T12:48:55.884Z,5.40
2019-03-21T12:53:59.446Z,5.08
2019-03-21T12:59:03.064Z,6.47
2019-03-21T13:04:06.626Z,4.62
2019-03-21T13:09:10.222Z,5.42
2019-03-21T13:14:13.768Z,5.15
2019-03-21T13:19:17.348Z,5.37
2019-03-21T13:24:20.916Z,4.50
2019-03-21T13:29:25.222Z,4.72
2019-03-21T13:34:28.960Z,4.83
2019-03-21T13:39:32.619Z,3.87
2019-03-21T13:44:36.217Z,4.17
2019-03-21T13:49:39.813Z,4.05
2019-03-21T13:54:43.658Z,4.78
2019-03-21T13:59:47.496Z,4.10
2019-03-21T14:04:51.020Z,13.55
2019-03-21T14:09:54.656Z,19.27
2019-03-21T14:14:58.216Z,16.85
2019-03-21T14:20:01.827Z,14.13
2019-03-21T14:25:06.903Z,11.25
2019-03-21T14:30:12.883Z,10.80
2019-03-21T14:35:16.434Z,9.80
2019-03-21T14:40:20.011Z,9.88
2019-03-21T14:45:23.571Z,8.30
2019-03-21T14:50:27.143Z,7.78
2019-03-21T14:55:30.725Z,6.77
2019-03-21T15:00:34.489Z,6.90
2019-03-21T15:05:40.422Z,6.85
2019-03-21T15:10:44.020Z,6.28
2019-03-21T15:15:47.563Z,6.35
2019-03-21T15:20:51.244Z,5.72
2019-03-21T15:25:57.296Z,6.03
2019-03-21T15:31:01.903Z,5.70
2019-03-21T15:36:05.665Z,5.10
2019-03-21T15:41:09.184Z,5.65
2019-03-21T15:46:12.781Z,5.08
2019-03-21T15:51:16.331Z,5.37
2019-03-21T15:56:19.852Z,4.62
2019-03-21T16:01:23.444Z,5.97
2019-03-21T16:06:26.975Z,5.12
2019-03-21T16:11:30.560Z,5.10
2019-03-21T16:16:34.092Z,5.30
2019-03-21T16:21:37.645Z,4.70
2019-03-21T16:26:41.191Z,5.08
2019-03-21T16:31:44.782Z,4.77
2019-03-21T16:36:48.367Z,4.12
2019-03-21T16:41:51.953Z,4.47
2019-03-21T16:46:55.545Z,3.92
2019-03-21T16:51:59.101Z,4.47
2019-03-21T16:57:02.727Z,4.30
2019-03-21T17:02:06.294Z,4.58
2019-03-21T17:07:09.874Z,4.77
2019-03-21T17:12:13.492Z,4.53
2019-03-21T17:17:17.018Z,5.47
2019-03-21T17:22:20.602Z,8.85
2019-03-21T17:27:24.246Z,7.72
2019-03-21T17:32:27.822Z,8.65
2019-03-21T17:37:39.850Z,9.25
2019-03-21T17:42:44.822Z,10.85
2019-03-21T17:47:49.485Z,11.90
2019-03-21T17:53:00.872Z,10.20
2019-03-21T17:58:08.768Z,12.50
2019-03-21T18:03:12.498Z,10.03
2019-03-21T18:08:16.050Z,11.97
2019-03-21T18:13:19.597Z,12.60
2019-03-21T18:18:24.185Z,10.75
2019-03-21T18:23:28.971Z,11.08
2019-03-21T18:28:34.303Z,11.48
2019-03-21T18:33:42.750Z,11.50
2019-03-21T18:38:57.451Z,12.05
2019-03-21T18:43:51.604Z,11.57
2019-03-21T18:48:55.203Z,12.98
2019-03-21T18:53:58.834Z,11.83
2019-03-21T18:59:02.438Z,12.95
2019-03-21T19:04:06.031Z,13.33
2019-03-21T19:09:09.586Z,13.34
2019-03-21T19:14:13.184Z,13.35
2019-03-21T19:19:16.751Z,14.95
2019-03-21T19:24:20.422Z,14.90
2019-03-21T19:29:23.954Z,14.73
2019-03-21T19:34:27.597Z,13.58
2019-03-21T19:39:31.156Z,12.65
2019-03-21T19:44:36.275Z,13.72
2019-03-21T19:49:45.084Z,13.53
2019-03-21T19:54:49.444Z,13.43
2019-03-21T19:59:54.107Z,15.25
2019-03-21T20:04:59.236Z,15.90
2019-03-21T20:10:03.470Z,17.02
2019-03-21T20:15:10.190Z,14.97
2019-03-21T20:20:16.817Z,15.53
2019-03-21T20:25:20.443Z,15.35
2019-03-21T20:30:23.975Z,15.63
2019-03-21T20:35:27.547Z,15.38
2019-03-21T20:40:31.148Z,16.75
2019-03-21T20:45:34.726Z,18.60
2019-03-21T20:50:38.274Z,37.05
2019-03-21T20:55:53.203Z,22.60
2019-03-21T21:00:47.204Z,23.52
2019-03-21T21:05:50.781Z,18.37
2019-03-21T21:10:54.313Z,19.35
2019-03-21T21:15:58.248Z,21.37
2019-03-21T21:21:01.851Z,21.82
2019-03-21T21:26:06.059Z,22.62
2019-03-21T21:31:09.723Z,28.02
2019-03-21T21:36:21.551Z,29.95
2019-03-21T21:41:18.526Z,35.63
2019-03-21T21:46:22.484Z,29.67
2019-03-21T21:51:26.167Z,30.68
2019-03-21T21:56:29.853Z,29.87
2019-03-21T22:01:33.439Z,30.70
2019-03-21T22:06:36.996Z,29.27
2019-03-21T22:11:40.580Z,30.43
2019-03-21T22:16:44.131Z,31.85
2019-03-21T22:21:47.760Z,31.40
2019-03-21T22:26:51.336Z,35.15
2019-03-21T22:31:54.939Z,38.05
2019-03-21T22:36:58.500Z,38.00
2019-03-21T22:42:02.087Z,36.95
2019-03-21T22:47:05.672Z,38.67
2019-03-21T22:52:09.199Z,38.08
2019-03-21T22:57:12.780Z,37.90
2019-03-21T23:02:16.716Z,36.25
2019-03-21T23:07:20.269Z,36.25
2019-03-21T23:12:23.906Z,33.80
2019-03-21T23:17:27.464Z,33.02
2019-03-21T23:22:31.012Z,33.58
2019-03-21T23:27:34.621Z,33.63
2019-03-21T23:32:38.145Z,30.75
2019-03-21T23:37:41.699Z,33.50
2019-03-21T23:42:45.306Z,32.28
2019-03-21T23:47:48.865Z,32.48
2019-03-21T23:52:52.454Z,31.02
2019-03-21T23:57:56.013Z,31.70
